createdAt,value
2018-11-28T00:00:41.305Z,5.40
2018-11-28T00:03:11.898Z,8.45
2018-11-28T00:05:41.829Z,10.18
2018-11-28T00:08:18.188Z,7.53
2018-11-28T00:10:48.383Z,5.80
2018-11-28T00:13:18.195Z,5.92
2018-11-28T00:15:47.455Z,8.53
2018-11-28T00:18:17.969Z,7.00
2018-11-28T00:20:47.352Z,5.60
2018-11-28T00:23:16.058Z,7.87
2018-11-28T00:25:46.330Z,5.80
2018-11-28T00:28:16.186Z,7.45
2018-11-28T00:30:45.547Z,5.95
2018-11-28T00:33:15.179Z,5.97
2018-11-28T00:35:44.832Z,7.28
2018-11-28T00:38:13.547Z,6.00
2018-11-28T00:40:43.127Z,6.40
2018-11-28T00:43:12.971Z,9.98
2018-11-28T00:45:43.195Z,6.03
2018-11-28T00:48:13.129Z,7.97
2018-11-28T00:50:43.223Z,5.67
2018-11-28T00:53:12.627Z,4.60
2018-11-28T00:55:42.196Z,8.55
2018-11-28T00:58:11.327Z,5.00
2018-11-28T01:00:40.654Z,5.72
2018-11-28T01:03:10.009Z,5.28
2018-11-28T01:05:39.950Z,5.00
2018-11-28T01:08:09.088Z,5.10
2018-11-28T01:10:38.642Z,6.22
2018-11-28T01:13:07.727Z,6.15
2018-11-28T01:15:36.537Z,5.72
2018-11-28T01:18:06.437Z,4.55
2018-11-28T01:20:35.413Z,4.40
2018-11-28T01:23:04.925Z,7.72
2018-11-28T01:25:33.640Z,6.72
2018-11-28T01:28:02.387Z,4.17
2018-11-28T01:30:31.429Z,5.62
2018-11-28T01:33:00.655Z,6.60
2018-11-28T01:35:29.397Z,5.45
2018-11-28T01:37:58.456Z,5.10
2018-11-28T01:40:27.156Z,4.17
2018-11-28T01:42:56.259Z,5.05
2018-11-28T01:45:24.956Z,5.70
2018-11-28T01:47:54.018Z,5.25
2018-11-28T01:50:23.076Z,4.90
2018-11-28T01:52:52.410Z,4.80
2018-11-28T01:55:22.138Z,7.20
2018-11-28T01:57:51.906Z,4.55
2018-11-28T02:00:25.193Z,5.33
2018-11-28T02:02:58.672Z,4.65
2018-11-28T02:05:27.719Z,5.30
2018-11-28T02:07:57.864Z,4.78
2018-11-28T02:10:26.565Z,6.80
2018-11-28T02:12:55.266Z,5.45
2018-11-28T02:15:25.052Z,5.75
2018-11-28T02:17:54.380Z,8.05
2018-11-28T02:20:23.371Z,4.10
2018-11-28T02:22:52.085Z,4.62
2018-11-28T02:25:22.123Z,2.80
2018-11-28T02:27:51.095Z,3.40
2018-11-28T02:30:21.023Z,2.22
2018-11-28T02:32:51.252Z,3.10
2018-11-28T02:35:20.416Z,2.90
2018-11-28T02:37:50.714Z,2.62
2018-11-28T02:40:21.468Z,3.52
2018-11-28T02:42:51.167Z,3.17
2018-11-28T02:45:21.083Z,2.90
2018-11-28T02:47:51.965Z,2.50
2018-11-28T02:50:20.700Z,2.60
2018-11-28T02:52:49.683Z,5.25
2018-11-28T02:55:19.022Z,3.60
2018-11-28T02:57:49.222Z,2.75
2018-11-28T03:00:25.056Z,2.75
2018-11-28T03:02:55.034Z,3.02
2018-11-28T03:05:24.053Z,2.50
2018-11-28T03:07:53.058Z,3.22
2018-11-28T03:10:22.959Z,2.62
2018-11-28T03:12:52.868Z,3.62
2018-11-28T03:15:35.936Z,2.67
2018-11-28T03:18:04.650Z,3.77
2018-11-28T03:20:33.762Z,4.05
2018-11-28T03:23:03.034Z,3.17
2018-11-28T03:25:32.146Z,3.58
2018-11-28T03:28:00.848Z,4.65
2018-11-28T03:30:30.181Z,5.12
2018-11-28T03:33:00.113Z,4.62
2018-11-28T03:35:28.817Z,5.50
2018-11-28T03:37:57.882Z,7.80
2018-11-28T03:40:27.557Z,6.00
2018-11-28T03:42:56.535Z,6.47
2018-11-28T03:45:25.267Z,7.22
2018-11-28T03:47:54.280Z,6.05
2018-11-28T03:50:24.183Z,5.87
2018-11-28T03:52:53.316Z,5.35
2018-11-28T03:55:22.323Z,6.20
2018-11-28T03:57:51.375Z,6.47
2018-11-28T04:00:21.901Z,6.72
2018-11-28T04:02:50.860Z,6.03
2018-11-28T04:05:19.548Z,8.93
2018-11-28T04:07:48.706Z,7.22
2018-11-28T04:10:17.713Z,7.10
2018-11-28T04:12:46.631Z,9.68
2018-11-28T04:15:19.794Z,7.47
2018-11-28T04:17:49.881Z,10.38
2018-11-28T04:20:22.401Z,12.25
2018-11-28T04:22:51.299Z,9.90
2018-11-28T04:25:21.362Z,10.28
2018-11-28T04:27:50.246Z,11.83
2018-11-28T04:30:25.316Z,11.57
2018-11-28T04:32:55.447Z,13.75
2018-11-28T04:35:24.276Z,12.30
2018-11-28T04:37:52.989Z,12.18
2018-11-28T04:40:22.603Z,13.93
2018-11-28T04:42:51.962Z,13.50
2018-11-28T04:45:24.395Z,13.95
2018-11-28T04:47:54.888Z,15.25
2018-11-28T04:50:24.262Z,12.50
2018-11-28T04:52:53.773Z,13.45
2018-11-28T04:55:23.648Z,14.53
2018-11-28T04:57:53.090Z,13.10
2018-11-28T05:00:27.163Z,13.48
2018-11-28T05:02:59.685Z,11.35
2018-11-28T05:05:30.837Z,12.07
2018-11-28T05:08:01.650Z,11.78
2018-11-28T05:10:31.126Z,12.03
2018-11-28T05:13:00.671Z,9.28
2018-11-28T05:15:30.613Z,10.08
2018-11-28T05:17:59.776Z,12.70
2018-11-28T05:20:29.892Z,11.60
2018-11-28T05:22:58.603Z,9.88
2018-11-28T05:25:28.221Z,12.33
2018-11-28T05:27:57.883Z,11.50
2018-11-28T05:30:27.972Z,12.55
2018-11-28T05:32:56.684Z,11.30
2018-11-28T05:35:32.721Z,10.63
2018-11-28T05:38:03.375Z,9.53
2018-11-28T05:40:32.443Z,10.43
2018-11-28T05:43:01.477Z,14.07
2018-11-28T05:45:31.187Z,10.10
2018-11-28T05:48:01.091Z,12.28
2018-11-28T05:50:30.511Z,11.95
2018-11-28T05:52:59.562Z,15.68
2018-11-28T05:55:28.903Z,13.55
2018-11-28T05:57:58.406Z,13.78
2018-11-28T06:00:41.122Z,10.40
2018-11-28T06:03:14.070Z,9.95
2018-11-28T06:05:43.404Z,15.38
2018-11-28T06:08:12.743Z,10.88
2018-11-28T06:10:42.413Z,10.88
2018-11-28T06:13:12.554Z,11.95
2018-11-28T06:15:41.895Z,10.90
2018-11-28T06:18:11.274Z,16.70
2018-11-28T06:20:40.659Z,8.73
2018-11-28T06:23:10.466Z,9.58
2018-11-28T06:25:45.134Z,10.32
2018-11-28T06:28:15.316Z,10.00
2018-11-28T06:30:44.286Z,12.80
2018-11-28T06:33:13.431Z,12.68
2018-11-28T06:35:43.229Z,12.50
2018-11-28T06:38:12.303Z,16.65
2018-11-28T06:40:41.696Z,14.80
2018-11-28T06:43:11.092Z,13.90
2018-11-28T06:45:40.115Z,15.60
2018-11-28T06:48:09.656Z,15.10
2018-11-28T06:50:38.824Z,14.58
2018-11-28T06:53:09.421Z,14.18
2018-11-28T06:55:39.507Z,14.98
2018-11-28T06:58:08.843Z,15.83
2018-11-28T07:00:38.348Z,15.32
2018-11-28T07:03:07.470Z,13.58
2018-11-28T07:05:36.510Z,12.60
2018-11-28T07:08:05.967Z,18.05
2018-11-28T07:10:34.687Z,11.50
2018-11-28T07:13:03.375Z,16.02
2018-11-28T07:15:32.429Z,13.50
2018-11-28T07:18:36.895Z,13.78
2018-11-28T07:21:06.315Z,14.43
2018-11-28T07:23:35.022Z,16.25
2018-11-28T07:26:03.737Z,11.53
2018-11-28T07:28:32.763Z,16.40
2018-11-28T07:31:01.476Z,16.87
2018-11-28T07:33:31.143Z,14.15
2018-11-28T07:35:59.836Z,16.42
2018-11-28T07:38:29.780Z,14.23
2018-11-28T07:40:58.891Z,13.62
2018-11-28T07:43:28.068Z,15.85
2018-11-28T07:45:57.152Z,15.20
2018-11-28T07:48:25.876Z,16.25
2018-11-28T07:50:55.033Z,21.20
2018-11-28T07:53:24.675Z,12.90
2018-11-28T07:55:53.666Z,15.15
2018-11-28T07:58:22.672Z,16.30
2018-11-28T08:00:51.994Z,19.48
2018-11-28T08:03:21.013Z,16.82
2018-11-28T08:05:49.756Z,17.20
2018-11-28T08:08:18.816Z,15.68
2018-11-28T08:10:48.086Z,15.25
2018-11-28T08:13:16.786Z,15.80
2018-11-28T08:15:46.253Z,12.95
2018-11-28T08:18:15.362Z,21.52
2018-11-28T08:20:44.322Z,18.45
2018-11-28T08:23:13.598Z,14.55
2018-11-28T08:25:43.180Z,16.90
2018-11-28T08:28:12.596Z,15.15
2018-11-28T08:30:41.276Z,17.55
2018-11-28T08:33:10.923Z,17.77
2018-11-28T08:35:40.998Z,14.47
2018-11-28T08:38:10.618Z,14.75
2018-11-28T08:40:40.613Z,15.78
2018-11-28T08:43:09.693Z,16.07
2018-11-28T08:45:38.678Z,15.65
2018-11-28T08:48:07.745Z,19.55
2018-11-28T08:50:37.719Z,17.05
2018-11-28T08:53:08.229Z,18.37
2018-11-28T08:55:37.585Z,13.40
2018-11-28T09:59:14.423Z,13.70
2018-11-28T10:01:44.379Z,12.00
2018-11-28T10:04:13.435Z,13.43
2018-11-28T10:06:42.776Z,13.95
2018-11-28T10:09:12.179Z,13.78
2018-11-28T10:11:42.115Z,14.55
2018-11-28T10:14:12.045Z,7.90
2018-11-28T10:16:41.218Z,11.83
2018-11-28T10:19:12.759Z,12.37
2018-11-28T10:21:42.586Z,16.20
2018-11-28T10:24:11.875Z,16.20
2018-11-28T10:26:41.230Z,13.45
2018-11-28T10:29:10.775Z,17.92
2018-11-28T10:31:40.388Z,10.18
2018-11-28T10:34:10.090Z,13.08
2018-11-28T10:36:39.396Z,13.80
2018-11-28T10:39:09.586Z,13.75
2018-11-28T10:41:39.432Z,15.85
2018-11-28T10:44:08.750Z,14.83
2018-11-28T10:46:37.823Z,18.82
2018-11-28T10:49:09.096Z,14.63
2018-11-28T10:51:38.987Z,13.95
2018-11-28T10:54:08.307Z,13.30
2018-11-28T10:56:37.788Z,11.12
2018-11-28T10:59:06.946Z,17.62
2018-11-28T11:01:52.214Z,20.52
2018-11-28T11:04:45.715Z,16.95
2018-11-28T11:07:32.658Z,16.75
2018-11-28T11:10:19.963Z,15.30
2018-11-28T11:13:07.187Z,17.90
2018-11-28T11:15:36.858Z,13.10
2018-11-28T11:18:10.546Z,14.15
2018-11-28T11:20:41.702Z,12.18
2018-11-28T11:23:11.608Z,18.65
2018-11-28T11:25:40.676Z,15.50
2018-11-28T11:28:10.768Z,13.45
2018-11-28T11:30:40.144Z,12.90
2018-11-28T11:33:09.167Z,14.25
2018-11-28T11:35:38.466Z,10.80
2018-11-28T11:38:08.070Z,13.90
2018-11-28T11:40:37.685Z,13.90
2018-11-28T11:43:07.132Z,17.17
2018-11-28T11:45:37.066Z,14.20
2018-11-28T11:48:06.436Z,17.32
2018-11-28T11:50:35.799Z,14.20
2018-11-28T11:53:05.262Z,20.20
2018-11-28T11:55:34.648Z,16.42
2018-11-28T11:58:05.344Z,22.00
2018-11-28T12:00:36.791Z,20.57
2018-11-28T12:03:09.652Z,17.73
2018-11-28T12:05:39.732Z,20.72
2018-11-28T12:08:09.270Z,23.60
2018-11-28T12:10:39.266Z,20.77
2018-11-28T12:13:08.923Z,24.45
2018-11-28T12:15:37.711Z,27.37
2018-11-28T12:18:07.790Z,25.95
2018-11-28T12:20:59.961Z,30.70
2018-11-28T12:23:29.019Z,26.75
2018-11-28T12:25:58.049Z,31.62
2018-11-28T12:28:27.111Z,26.75
2018-11-28T12:30:56.569Z,30.17
2018-11-28T12:33:25.675Z,29.85
2018-11-28T12:35:54.705Z,27.13
2018-11-28T12:38:23.635Z,31.23
2018-11-28T12:40:52.587Z,28.92
2018-11-28T12:43:21.293Z,28.92
2018-11-28T12:45:51.001Z,36.28
2018-11-28T12:48:20.087Z,32.20
2018-11-28T12:50:49.388Z,34.60
2018-11-28T12:53:18.144Z,28.27
2018-11-28T12:55:47.156Z,33.13
2018-11-28T12:58:20.321Z,31.42
2018-11-28T13:00:49.210Z,34.70
2018-11-28T13:03:19.295Z,29.07
2018-11-28T13:05:48.469Z,30.15
2018-11-28T13:08:17.934Z,33.02
2018-11-28T13:10:46.957Z,37.03
2018-11-28T13:13:16.598Z,33.98
2018-11-28T13:15:47.134Z,33.67
2018-11-28T13:18:16.864Z,34.18
2018-11-28T13:20:46.215Z,36.60
2018-11-28T13:23:15.929Z,30.90
2018-11-28T13:25:46.036Z,34.90
2018-11-28T13:28:15.081Z,49.83
2018-11-28T13:30:44.507Z,42.03
2018-11-28T13:33:13.863Z,34.08
2018-11-28T13:35:43.303Z,38.38
2018-11-28T13:38:13.778Z,33.60
2018-11-28T13:40:42.965Z,35.08
2018-11-28T13:43:11.759Z,36.55
2018-11-28T13:45:48.667Z,33.38
2018-11-28T13:48:17.767Z,47.00
2018-11-28T13:50:47.141Z,35.00
2018-11-28T13:53:17.358Z,35.23
2018-11-28T13:56:30.022Z,38.78
2018-11-28T13:58:21.601Z,40.60
2018-11-28T14:00:51.595Z,36.83
2018-11-28T14:03:20.310Z,38.88
2018-11-28T14:05:50.136Z,36.55
2018-11-28T14:08:19.901Z,40.70
2018-11-28T14:10:48.625Z,34.05
2018-11-28T14:13:17.375Z,36.03
2018-11-28T14:15:46.030Z,34.30
2018-11-28T14:18:18.887Z,35.58
2018-11-28T14:20:47.698Z,35.48
2018-11-28T14:23:16.391Z,39.38
2018-11-28T14:25:45.150Z,41.23
2018-11-28T14:28:14.300Z,25.00
2018-11-28T14:30:43.511Z,33.95
2018-11-28T14:33:12.587Z,35.43
2018-11-28T14:35:41.299Z,38.50
2018-11-28T14:38:11.395Z,36.25
2018-11-28T14:40:40.409Z,39.40
2018-11-28T14:43:09.687Z,33.88
2018-11-28T14:45:38.804Z,34.60
2018-11-28T14:48:07.884Z,38.95
2018-11-28T14:50:36.618Z,38.92
2018-11-28T14:53:05.899Z,35.90
2018-11-28T14:55:36.536Z,32.75
2018-11-28T14:58:05.903Z,34.70
2018-11-28T15:00:36.563Z,38.85
2018-11-28T15:03:19.440Z,37.83
2018-11-28T15:06:28.149Z,31.52
2018-11-28T15:09:33.946Z,34.10
2018-11-28T15:12:03.866Z,34.10
2018-11-28T15:14:32.835Z,33.30
2018-11-28T15:17:01.946Z,31.75
2018-11-28T15:19:32.440Z,41.40
2018-11-28T15:22:01.474Z,27.67
2018-11-28T15:24:32.527Z,31.42
2018-11-28T15:27:01.934Z,28.23
2018-11-28T15:29:30.929Z,39.05
2018-11-28T15:31:59.621Z,34.38
2018-11-28T15:34:29.017Z,36.60
2018-11-28T15:36:59.036Z,37.50
2018-11-28T15:39:28.025Z,35.90
2018-11-28T15:42:02.651Z,39.85
2018-11-28T15:44:31.644Z,24.35
2018-11-28T15:47:00.947Z,40.28
2018-11-28T15:49:32.188Z,38.85
2018-11-28T15:52:01.757Z,24.55
2018-11-28T15:54:31.894Z,35.08
2018-11-28T15:57:00.874Z,34.08
2018-11-28T15:59:29.715Z,36.83
2018-11-28T16:01:59.405Z,32.13
2018-11-28T16:04:29.424Z,35.52
2018-11-28T16:06:58.094Z,37.17
2018-11-28T16:09:44.395Z,39.40
2018-11-28T16:12:14.191Z,38.53
2018-11-28T16:14:42.901Z,33.08
2018-11-28T16:17:11.586Z,42.73
2018-11-28T16:19:40.610Z,42.10
2018-11-28T16:22:09.274Z,40.28
2018-11-28T16:24:38.241Z,40.63
2018-11-28T16:27:07.866Z,38.75
2018-11-28T16:29:38.645Z,44.40
2018-11-28T16:32:07.465Z,38.83
2018-11-28T16:34:36.637Z,39.03
2018-11-28T16:37:05.762Z,42.85
2018-11-28T16:39:34.718Z,33.78
2018-11-28T16:42:03.782Z,41.55
2018-11-28T16:44:32.575Z,38.25
2018-11-28T16:47:02.683Z,37.98
2018-11-28T16:49:32.641Z,39.23
2018-11-28T16:52:01.363Z,39.42
2018-11-28T16:54:30.043Z,38.60
2018-11-28T16:56:59.454Z,32.55
2018-11-28T16:59:30.800Z,34.20
2018-11-28T17:01:58.687Z,37.67
2018-11-28T17:04:28.387Z,36.55
2018-11-28T17:06:57.381Z,34.27
2018-11-28T17:09:26.752Z,36.10
2018-11-28T17:11:56.168Z,65.92
2018-11-28T17:14:27.115Z,41.88
2018-11-28T17:16:56.130Z,37.13
2018-11-28T17:19:25.125Z,32.93
2018-11-28T17:21:55.135Z,33.67
2018-11-28T17:24:24.183Z,44.60
2018-11-28T17:26:53.613Z,32.58
2018-11-28T17:29:23.302Z,36.93
2018-11-28T17:31:52.571Z,33.92
2018-11-28T17:34:21.936Z,32.20
2018-11-28T17:36:51.340Z,36.00
2018-11-28T17:39:21.714Z,36.05
2018-11-28T17:41:50.698Z,34.38
2018-11-28T17:44:20.366Z,40.33
2018-11-28T17:46:50.297Z,35.10
2018-11-28T17:49:19.737Z,26.85
2018-11-28T17:51:49.508Z,36.30
2018-11-28T17:54:18.336Z,35.45
2018-11-28T17:56:47.086Z,33.18
2018-11-28T17:59:17.152Z,29.02
2018-11-28T18:01:47.408Z,28.05
2018-11-28T18:04:16.772Z,31.33
2018-11-28T18:06:46.308Z,35.83
2018-11-28T18:09:16.333Z,35.45
2018-11-28T18:11:45.399Z,29.12
2018-11-28T18:14:14.114Z,33.13
2018-11-28T18:16:43.327Z,22.82
2018-11-28T18:19:12.342Z,32.35
2018-11-28T18:21:41.094Z,22.60
2018-11-28T18:24:10.388Z,31.45
2018-11-28T18:26:39.457Z,25.43
2018-11-28T18:29:08.894Z,30.12
2018-11-28T18:31:37.973Z,29.87
2018-11-28T18:34:07.922Z,30.80
2018-11-28T18:36:38.433Z,27.80
2018-11-28T18:39:10.856Z,32.83
2018-11-28T18:41:39.575Z,27.22
2018-11-28T18:44:09.017Z,32.85
2018-11-28T18:46:37.717Z,28.02
2018-11-28T18:49:06.846Z,34.23
2018-11-28T18:51:35.539Z,35.10
2018-11-28T18:54:04.939Z,35.83
2018-11-28T18:56:33.640Z,27.15
2018-11-28T18:59:03.144Z,27.22
2018-11-28T19:01:32.616Z,36.90
2018-11-28T19:04:01.733Z,28.80
2018-11-28T19:06:30.531Z,35.55
2018-11-28T19:08:59.445Z,33.42
2018-11-28T19:11:32.078Z,36.85
2018-11-28T19:14:02.941Z,27.00
2018-11-28T19:16:37.889Z,28.15
2018-11-28T19:19:04.308Z,36.23
2018-11-28T19:21:33.938Z,30.45
2018-11-28T19:24:02.638Z,34.58
2018-11-28T19:26:31.489Z,38.10
2018-11-28T19:29:00.469Z,30.70
2018-11-28T19:31:29.457Z,34.83
2018-11-28T19:33:59.158Z,35.13
2018-11-28T19:36:27.899Z,40.30
2018-11-28T19:38:56.937Z,34.40
2018-11-28T19:41:27.051Z,34.48
2018-11-28T19:43:56.156Z,36.42
2018-11-28T19:46:25.082Z,32.53
2018-11-28T19:48:54.115Z,37.90
2018-11-28T19:51:24.239Z,35.88
2018-11-28T19:53:54.679Z,39.27
2018-11-28T19:56:23.740Z,34.90
2018-11-28T19:58:52.768Z,40.67
2018-11-28T20:01:21.504Z,37.45
2018-11-28T20:03:50.667Z,37.42
2018-11-28T20:06:19.373Z,29.50
2018-11-28T20:08:48.087Z,35.20
2018-11-28T20:11:17.241Z,27.55
2018-11-28T20:13:46.311Z,38.38
2018-11-28T20:18:47.089Z,42.95
2018-11-28T20:21:16.285Z,39.83
2018-11-28T20:23:45.633Z,36.35
2018-11-28T20:26:14.679Z,39.18
2018-11-28T20:28:43.378Z,43.58
2018-11-28T20:31:12.462Z,38.95
2018-11-28T20:33:41.531Z,36.40
2018-11-28T20:36:10.546Z,41.92
2018-11-28T20:38:39.651Z,31.37
2018-11-28T20:41:08.405Z,41.20
2018-11-28T20:43:37.488Z,37.00
2018-11-28T20:46:08.740Z,34.33
2018-11-28T20:48:37.755Z,33.02
2018-11-28T20:51:06.748Z,36.25
2018-11-28T20:53:35.764Z,32.60
2018-11-28T20:56:04.829Z,29.35
2018-11-28T20:58:33.807Z,43.00
2018-11-28T21:01:03.950Z,40.83
2018-11-28T21:03:32.966Z,39.33
2018-11-28T21:06:02.271Z,42.70
2018-11-28T21:08:31.666Z,38.08
2018-11-28T21:11:00.714Z,34.33
2018-11-28T21:13:29.703Z,36.10
2018-11-28T21:15:58.448Z,36.88
2018-11-28T21:18:27.106Z,41.42
2018-11-28T21:20:56.071Z,38.92
2018-11-28T21:23:25.093Z,37.50
2018-11-28T21:25:53.831Z,34.85
2018-11-28T21:28:23.888Z,38.55
2018-11-28T21:30:53.627Z,38.73
2018-11-28T21:33:22.685Z,41.08
2018-11-28T21:35:52.779Z,39.83
2018-11-28T21:38:22.109Z,37.95
2018-11-28T21:40:51.495Z,38.25
2018-11-28T21:43:21.361Z,44.53
2018-11-28T21:45:50.918Z,37.83
2018-11-28T21:48:20.098Z,37.73
2018-11-28T21:50:48.844Z,42.67
2018-11-28T21:53:17.558Z,36.58
2018-11-28T21:55:48.995Z,40.90
2018-11-28T21:58:17.679Z,40.12
2018-11-28T22:00:46.750Z,33.95
2018-11-28T22:03:15.818Z,35.03
2018-11-28T22:05:45.573Z,36.23
2018-11-28T22:08:14.978Z,38.45
2018-11-28T22:10:44.274Z,43.08
2018-11-28T22:13:13.297Z,36.80
2018-11-28T22:15:42.493Z,38.53
2018-11-28T22:18:12.557Z,34.83
2018-11-28T22:20:41.577Z,33.67
2018-11-28T22:23:10.300Z,40.35
2018-11-28T22:25:38.973Z,38.33
2018-11-28T22:28:08.667Z,38.60
2018-11-28T22:30:37.650Z,40.15
2018-11-28T22:33:34.672Z,36.90
2018-11-28T22:36:04.106Z,39.63
2018-11-28T22:38:32.796Z,33.42
2018-11-28T22:41:01.914Z,31.62
2018-11-28T22:43:32.520Z,38.95
2018-11-28T22:46:01.523Z,39.40
2018-11-28T22:48:30.913Z,44.25
2018-11-28T22:51:01.009Z,37.05
2018-11-28T22:53:30.026Z,34.10
2018-11-28T22:55:59.086Z,28.92
2018-11-28T22:58:28.730Z,38.83
2018-11-28T23:01:12.666Z,34.88
2018-11-28T23:03:42.889Z,37.00
2018-11-28T23:06:12.173Z,36.80
2018-11-28T23:08:41.251Z,34.25
2018-11-28T23:11:10.386Z,32.65
2018-11-28T23:13:39.090Z,36.85
2018-11-28T23:16:08.336Z,37.23
2018-11-28T23:18:37.567Z,36.42
2018-11-28T23:21:06.460Z,34.90
2018-11-28T23:23:35.923Z,29.35
2018-11-28T23:26:04.658Z,38.55
2018-11-28T23:28:33.700Z,40.80
2018-11-28T23:31:02.930Z,29.63
2018-11-28T23:33:32.286Z,38.38
2018-11-28T23:36:01.263Z,34.55
2018-11-28T23:38:30.044Z,34.40
2018-11-28T23:40:58.754Z,41.18
2018-11-28T23:43:27.763Z,33.13
2018-11-28T23:45:56.566Z,39.23
2018-11-28T23:48:25.277Z,33.63
2018-11-28T23:50:54.141Z,31.02
2018-11-28T23:53:22.862Z,35.45
2018-11-28T23:55:51.554Z,36.83
2018-11-28T23:58:20.777Z,35.80
